sensor_id;sensor_type;location;lat;lon;timestamp;temperature;humidity
68026;SHT31;54819;48.030;14.710;2023-02-13T00:01:35;1.40;90.07
68026;SHT31;54819;48.030;14.710;2023-02-13T00:04:03;1.40;90.36
68026;SHT31;54819;48.030;14.710;2023-02-13T00:06:30;1.37;90.94
68026;SHT31;54819;48.030;14.710;2023-02-13T00:08:57;1.34;90.67
68026;SHT31;54819;48.030;14.710;2023-02-13T00:11:25;1.30;90.48
68026;SHT31;54819;48.030;14.710;2023-02-13T00:13:52;1.25;90.25
68026;SHT31;54819;48.030;14.710;2023-02-13T00:16:19;1.23;90.66
68026;SHT31;54819;48.030;14.710;2023-02-13T00:18:47;1.22;90.80
68026;SHT31;54819;48.030;14.710;2023-02-13T00:21:14;1.22;90.81
68026;SHT31;54819;48.030;14.710;2023-02-13T00:23:41;1.21;91.03
68026;SHT31;54819;48.030;14.710;2023-02-13T00:26:10;1.21;91.14
68026;SHT31;54819;48.030;14.710;2023-02-13T00:28:42;1.22;91.19
68026;SHT31;54819;48.030;14.710;2023-02-13T00:31:12;1.21;90.71
68026;SHT31;54819;48.030;14.710;2023-02-13T00:33:43;1.20;90.32
68026;SHT31;54819;48.030;14.710;2023-02-13T00:36:12;1.18;90.09
68026;SHT31;54819;48.030;14.710;2023-02-13T00:38:44;1.14;90.51
68026;SHT31;54819;48.030;14.710;2023-02-13T00:41:19;1.12;91.11
68026;SHT31;54819;48.030;14.710;2023-02-13T00:43:49;1.13;91.28
68026;SHT31;54819;48.030;14.710;2023-02-13T00:46:17;1.10;90.51
68026;SHT31;54819;48.030;14.710;2023-02-13T00:48:48;1.04;90.02
68026;SHT31;54819;48.030;14.710;2023-02-13T00:51:18;0.95;89.61
68026;SHT31;54819;48.030;14.710;2023-02-13T00:53:49;0.88;88.67
68026;SHT31;54819;48.030;14.710;2023-02-13T00:56:20;0.80;88.52
68026;SHT31;54819;48.030;14.710;2023-02-13T00:58:50;0.73;88.66
68026;SHT31;54819;48.030;14.710;2023-02-13T01:01:28;0.66;88.65
68026;SHT31;54819;48.030;14.710;2023-02-13T01:03:57;0.60;88.77
68026;SHT31;54819;48.030;14.710;2023-02-13T01:06:26;0.56;89.18
68026;SHT31;54819;48.030;14.710;2023-02-13T01:08:56;0.53;89.46
68026;SHT31;54819;48.030;14.710;2023-02-13T01:11:26;0.50;89.40
68026;SHT31;54819;48.030;14.710;2023-02-13T01:13:56;0.49;89.18
68026;SHT31;54819;48.030;14.710;2023-02-13T01:16:26;0.50;89.19
68026;SHT31;54819;48.030;14.710;2023-02-13T01:18:54;0.50;89.27
68026;SHT31;54819;48.030;14.710;2023-02-13T01:21:22;0.48;89.35
68026;SHT31;54819;48.030;14.710;2023-02-13T01:23:51;0.43;89.36
68026;SHT31;54819;48.030;14.710;2023-02-13T01:26:20;0.38;89.33
68026;SHT31;54819;48.030;14.710;2023-02-13T01:28:53;0.31;89.26
68026;SHT31;54819;48.030;14.710;2023-02-13T01:31:24;0.26;89.27
68026;SHT31;54819;48.030;14.710;2023-02-13T01:33:55;0.21;89.26
68026;SHT31;54819;48.030;14.710;2023-02-13T01:36:24;0.17;89.38
68026;SHT31;54819;48.030;14.710;2023-02-13T01:38:54;0.13;89.81
68026;SHT31;54819;48.030;14.710;2023-02-13T01:41:24;0.18;91.03
68026;SHT31;54819;48.030;14.710;2023-02-13T01:43:56;0.23;92.02
68026;SHT31;54819;48.030;14.710;2023-02-13T01:46:39;0.26;91.95
68026;SHT31;54819;48.030;14.710;2023-02-13T01:49:14;0.31;91.93
68026;SHT31;54819;48.030;14.710;2023-02-13T01:51:53;0.36;91.65
68026;SHT31;54819;48.030;14.710;2023-02-13T01:54:23;0.42;91.85
68026;SHT31;54819;48.030;14.710;2023-02-13T01:57:03;0.47;92.22
68026;SHT31;54819;48.030;14.710;2023-02-13T01:59:50;0.51;92.06
68026;SHT31;54819;48.030;14.710;2023-02-13T02:02:25;0.53;92.12
68026;SHT31;54819;48.030;14.710;2023-02-13T02:05:01;0.51;93.66
68026;SHT31;54819;48.030;14.710;2023-02-13T02:07:31;0.51;94.42
68026;SHT31;54819;48.030;14.710;2023-02-13T02:10:04;0.52;94.66
68026;SHT31;54819;48.030;14.710;2023-02-13T02:12:41;0.54;94.63
68026;SHT31;54819;48.030;14.710;2023-02-13T02:15:16;0.55;94.29
68026;SHT31;54819;48.030;14.710;2023-02-13T02:17:45;0.56;94.46
68026;SHT31;54819;48.030;14.710;2023-02-13T02:20:15;0.56;94.76
68026;SHT31;54819;48.030;14.710;2023-02-13T02:23:10;0.61;94.90
68026;SHT31;54819;48.030;14.710;2023-02-13T02:32:47;0.78;94.54
68026;SHT31;54819;48.030;14.710;2023-02-13T02:35:39;0.78;94.44
68026;SHT31;54819;48.030;14.710;2023-02-13T02:41:31;0.80;94.11
68026;SHT31;54819;48.030;14.710;2023-02-13T02:44:23;0.76;93.69
68026;SHT31;54819;48.030;14.710;2023-02-13T02:47:09;0.72;93.35
68026;SHT31;54819;48.030;14.710;2023-02-13T02:53:06;0.63;92.74
68026;SHT31;54819;48.030;14.710;2023-02-13T02:59:12;0.57;92.29
68026;SHT31;54819;48.030;14.710;2023-02-13T03:02:04;0.57;92.33
68026;SHT31;54819;48.030;14.710;2023-02-13T03:04:53;0.60;92.23
68026;SHT31;54819;48.030;14.710;2023-02-13T03:07:44;0.62;91.98
68026;SHT31;54819;48.030;14.710;2023-02-13T03:10:13;0.64;92.04
68026;SHT31;54819;48.030;14.710;2023-02-13T03:13:27;0.64;92.49
68026;SHT31;54819;48.030;14.710;2023-02-13T03:16:11;0.65;92.15
68026;SHT31;54819;48.030;14.710;2023-02-13T03:19:05;0.64;91.97
68026;SHT31;54819;48.030;14.710;2023-02-13T03:22:12;0.61;92.25
68026;SHT31;54819;48.030;14.710;2023-02-13T03:25:17;0.56;92.52
68026;SHT31;54819;48.030;14.710;2023-02-13T03:31:01;0.45;92.66
68026;SHT31;54819;48.030;14.710;2023-02-13T03:39:43;0.44;92.59
68026;SHT31;54819;48.030;14.710;2023-02-13T03:42:26;0.49;92.27
68026;SHT31;54819;48.030;14.710;2023-02-13T03:45:15;0.52;91.99
68026;SHT31;54819;48.030;14.710;2023-02-13T03:48:10;0.54;92.23
68026;SHT31;54819;48.030;14.710;2023-02-13T03:51:01;0.56;92.59
68026;SHT31;54819;48.030;14.710;2023-02-13T03:53:32;0.59;92.52
68026;SHT31;54819;48.030;14.710;2023-02-13T03:56:04;0.58;92.44
68026;SHT31;54819;48.030;14.710;2023-02-13T03:58:55;0.56;92.38
68026;SHT31;54819;48.030;14.710;2023-02-13T04:01:47;0.55;92.60
68026;SHT31;54819;48.030;14.710;2023-02-13T04:07:07;0.52;92.36
68026;SHT31;54819;48.030;14.710;2023-02-13T04:10:01;0.48;92.13
68026;SHT31;54819;48.030;14.710;2023-02-13T04:12:45;0.47;91.81
68026;SHT31;54819;48.030;14.710;2023-02-13T04:15:39;0.44;91.85
68026;SHT31;54819;48.030;14.710;2023-02-13T04:18:26;0.47;92.10
68026;SHT31;54819;48.030;14.710;2023-02-13T04:21:00;0.47;92.01
68026;SHT31;54819;48.030;14.710;2023-02-13T04:23:33;0.46;92.11
68026;SHT31;54819;48.030;14.710;2023-02-13T04:26:04;0.46;91.96
68026;SHT31;54819;48.030;14.710;2023-02-13T04:28:39;0.44;92.07
68026;SHT31;54819;48.030;14.710;2023-02-13T04:31:06;0.43;92.24
68026;SHT31;54819;48.030;14.710;2023-02-13T04:33:34;0.41;91.89
68026;SHT31;54819;48.030;14.710;2023-02-13T04:36:04;0.39;92.05
68026;SHT31;54819;48.030;14.710;2023-02-13T04:38:32;0.35;91.89
68026;SHT31;54819;48.030;14.710;2023-02-13T04:40:59;0.29;91.12
68026;SHT31;54819;48.030;14.710;2023-02-13T04:43:30;0.21;91.05
68026;SHT31;54819;48.030;14.710;2023-02-13T04:45:58;0.18;91.18
68026;SHT31;54819;48.030;14.710;2023-02-13T04:48:31;0.15;92.02
68026;SHT31;54819;48.030;14.710;2023-02-13T04:50:59;0.15;92.72
68026;SHT31;54819;48.030;14.710;2023-02-13T04:53:29;0.16;92.48
68026;SHT31;54819;48.030;14.710;2023-02-13T04:56:00;0.15;92.31
68026;SHT31;54819;48.030;14.710;2023-02-13T04:58:27;0.14;92.31
68026;SHT31;54819;48.030;14.710;2023-02-13T05:00:55;0.16;92.00
68026;SHT31;54819;48.030;14.710;2023-02-13T05:03:25;0.14;91.86
68026;SHT31;54819;48.030;14.710;2023-02-13T05:05:57;0.13;91.81
68026;SHT31;54819;48.030;14.710;2023-02-13T05:08:25;0.12;91.68
68026;SHT31;54819;48.030;14.710;2023-02-13T05:10:52;0.12;91.51
68026;SHT31;54819;48.030;14.710;2023-02-13T05:13:19;0.10;91.64
68026;SHT31;54819;48.030;14.710;2023-02-13T05:15:47;0.09;91.68
68026;SHT31;54819;48.030;14.710;2023-02-13T05:18:15;0.07;92.17
68026;SHT31;54819;48.030;14.710;2023-02-13T05:20:43;0.05;92.15
68026;SHT31;54819;48.030;14.710;2023-02-13T05:23:12;0.03;91.95
68026;SHT31;54819;48.030;14.710;2023-02-13T05:25:50;0.03;91.91
68026;SHT31;54819;48.030;14.710;2023-02-13T05:28:19;0.02;92.18
68026;SHT31;54819;48.030;14.710;2023-02-13T05:31:05;0.02;92.69
68026;SHT31;54819;48.030;14.710;2023-02-13T05:33:35;0.02;92.41
68026;SHT31;54819;48.030;14.710;2023-02-13T05:36:06;0.00;91.98
68026;SHT31;54819;48.030;14.710;2023-02-13T05:38:41;0.00;92.19
68026;SHT31;54819;48.030;14.710;2023-02-13T05:41:13;0.01;92.06
68026;SHT31;54819;48.030;14.710;2023-02-13T05:43:40;-0.00;91.56
68026;SHT31;54819;48.030;14.710;2023-02-13T05:46:11;0.00;91.48
68026;SHT31;54819;48.030;14.710;2023-02-13T05:48:38;-0.01;91.40
68026;SHT31;54819;48.030;14.710;2023-02-13T05:51:06;-0.05;90.80
68026;SHT31;54819;48.030;14.710;2023-02-13T05:53:34;-0.12;90.82
68026;SHT31;54819;48.030;14.710;2023-02-13T05:56:04;-0.19;90.96
68026;SHT31;54819;48.030;14.710;2023-02-13T05:58:33;-0.29;91.01
68026;SHT31;54819;48.030;14.710;2023-02-13T06:01:01;-0.36;90.91
68026;SHT31;54819;48.030;14.710;2023-02-13T06:03:31;-0.41;90.94
68026;SHT31;54819;48.030;14.710;2023-02-13T06:05:59;-0.44;91.24
68026;SHT31;54819;48.030;14.710;2023-02-13T06:08:29;-0.41;91.52
68026;SHT31;54819;48.030;14.710;2023-02-13T06:11:00;-0.36;91.65
68026;SHT31;54819;48.030;14.710;2023-02-13T06:13:29;-0.34;91.40
68026;SHT31;54819;48.030;14.710;2023-02-13T06:15:57;-0.34;91.22
68026;SHT31;54819;48.030;14.710;2023-02-13T06:18:28;-0.33;91.26
68026;SHT31;54819;48.030;14.710;2023-02-13T06:20:56;-0.29;91.45
68026;SHT31;54819;48.030;14.710;2023-02-13T06:23:34;-0.32;90.94
68026;SHT31;54819;48.030;14.710;2023-02-13T06:26:05;-0.48;90.24
68026;SHT31;54819;48.030;14.710;2023-02-13T06:28:36;-0.61;89.85
68026;SHT31;54819;48.030;14.710;2023-02-13T06:31:04;-0.88;89.41
68026;SHT31;54819;48.030;14.710;2023-02-13T06:33:31;-0.99;89.44
68026;SHT31;54819;48.030;14.710;2023-02-13T06:35:59;-1.05;89.55
68026;SHT31;54819;48.030;14.710;2023-02-13T06:38:27;-1.09;89.50
68026;SHT31;54819;48.030;14.710;2023-02-13T06:40:58;-1.10;89.47
68026;SHT31;54819;48.030;14.710;2023-02-13T06:43:33;-1.08;89.42
68026;SHT31;54819;48.030;14.710;2023-02-13T06:46:04;-1.10;89.31
68026;SHT31;54819;48.030;14.710;2023-02-13T06:48:35;-1.08;89.47
68026;SHT31;54819;48.030;14.710;2023-02-13T06:51:03;-1.08;89.50
68026;SHT31;54819;48.030;14.710;2023-02-13T06:53:31;-1.08;89.57
68026;SHT31;54819;48.030;14.710;2023-02-13T06:55:58;-1.04;89.64
68026;SHT31;54819;48.030;14.710;2023-02-13T06:58:30;-1.00;89.61
68026;SHT31;54819;48.030;14.710;2023-02-13T07:00:57;-0.97;89.60
68026;SHT31;54819;48.030;14.710;2023-02-13T07:03:25;-0.96;89.63
68026;SHT31;54819;48.030;14.710;2023-02-13T07:05:53;-0.88;89.48
68026;SHT31;54819;48.030;14.710;2023-02-13T07:08:20;-0.87;89.34
68026;SHT31;54819;48.030;14.710;2023-02-13T07:10:50;-0.84;89.38
68026;SHT31;54819;48.030;14.710;2023-02-13T07:13:18;-0.81;89.28
68026;SHT31;54819;48.030;14.710;2023-02-13T07:15:45;-0.79;89.15
68026;SHT31;54819;48.030;14.710;2023-02-13T07:18:12;-0.76;89.38
68026;SHT31;54819;48.030;14.710;2023-02-13T07:20:39;-0.70;89.67
68026;SHT31;54819;48.030;14.710;2023-02-13T07:23:07;-0.60;89.43
68026;SHT31;54819;48.030;14.710;2023-02-13T07:25:34;-0.50;89.31
68026;SHT31;54819;48.030;14.710;2023-02-13T07:28:02;-0.37;89.09
68026;SHT31;54819;48.030;14.710;2023-02-13T07:30:32;-0.24;89.33
68026;SHT31;54819;48.030;14.710;2023-02-13T07:33:01;-0.16;89.12
68026;SHT31;54819;48.030;14.710;2023-02-13T07:35:31;-0.13;88.57
68026;SHT31;54819;48.030;14.710;2023-02-13T07:37:59;-0.15;88.41
68026;SHT31;54819;48.030;14.710;2023-02-13T07:40:26;-0.07;88.66
68026;SHT31;54819;48.030;14.710;2023-02-13T07:42:54;-0.03;88.79
68026;SHT31;54819;48.030;14.710;2023-02-13T07:45:22;0.05;88.88
68026;SHT31;54819;48.030;14.710;2023-02-13T07:47:50;0.16;89.10
68026;SHT31;54819;48.030;14.710;2023-02-13T07:50:20;0.31;88.81
68026;SHT31;54819;48.030;14.710;2023-02-13T07:53:03;0.40;88.72
68026;SHT31;54819;48.030;14.710;2023-02-13T07:55:30;0.50;88.88
68026;SHT31;54819;48.030;14.710;2023-02-13T07:58:00;0.55;88.88
68026;SHT31;54819;48.030;14.710;2023-02-13T08:00:27;0.65;88.94
68026;SHT31;54819;48.030;14.710;2023-02-13T08:02:57;0.80;88.96
68026;SHT31;54819;48.030;14.710;2023-02-13T08:05:28;0.94;88.68
68026;SHT31;54819;48.030;14.710;2023-02-13T08:07:58;1.07;88.84
68026;SHT31;54819;48.030;14.710;2023-02-13T08:10:29;1.19;88.42
68026;SHT31;54819;48.030;14.710;2023-02-13T08:13:34;1.30;88.26
68026;SHT31;54819;48.030;14.710;2023-02-13T08:16:03;1.46;88.17
68026;SHT31;54819;48.030;14.710;2023-02-13T08:18:30;1.50;88.26
68026;SHT31;54819;48.030;14.710;2023-02-13T08:21:00;1.59;88.16
68026;SHT31;54819;48.030;14.710;2023-02-13T08:23:28;1.70;88.06
68026;SHT31;54819;48.030;14.710;2023-02-13T08:25:59;1.82;88.08
68026;SHT31;54819;48.030;14.710;2023-02-13T08:28:28;1.96;88.05
68026;SHT31;54819;48.030;14.710;2023-02-13T08:30:56;2.09;87.73
68026;SHT31;54819;48.030;14.710;2023-02-13T08:33:24;2.17;87.34
68026;SHT31;54819;48.030;14.710;2023-02-13T08:35:51;2.24;87.60
68026;SHT31;54819;48.030;14.710;2023-02-13T08:38:22;2.33;87.55
68026;SHT31;54819;48.030;14.710;2023-02-13T08:40:50;2.46;87.23
68026;SHT31;54819;48.030;14.710;2023-02-13T08:43:17;2.53;87.37
68026;SHT31;54819;48.030;14.710;2023-02-13T08:45:44;2.65;87.34
68026;SHT31;54819;48.030;14.710;2023-02-13T08:48:12;2.74;87.20
68026;SHT31;54819;48.030;14.710;2023-02-13T08:50:39;2.76;87.53
68026;SHT31;54819;48.030;14.710;2023-02-13T08:53:10;2.85;87.29
68026;SHT31;54819;48.030;14.710;2023-02-13T08:55:37;2.91;87.17
68026;SHT31;54819;48.030;14.710;2023-02-13T08:58:04;3.01;87.03
68026;SHT31;54819;48.030;14.710;2023-02-13T09:00:32;3.08;86.93
68026;SHT31;54819;48.030;14.710;2023-02-13T09:03:00;3.14;86.86
68026;SHT31;54819;48.030;14.710;2023-02-13T09:05:29;3.24;87.03
68026;SHT31;54819;48.030;14.710;2023-02-13T09:08:00;3.36;86.80
68026;SHT31;54819;48.030;14.710;2023-02-13T09:10:30;3.49;86.66
68026;SHT31;54819;48.030;14.710;2023-02-13T09:12:58;3.63;86.55
68026;SHT31;54819;48.030;14.710;2023-02-13T09:15:32;3.81;86.39
68026;SHT31;54819;48.030;14.710;2023-02-13T09:17:59;3.99;85.96
68026;SHT31;54819;48.030;14.710;2023-02-13T09:20:27;4.15;85.42
68026;SHT31;54819;48.030;14.710;2023-02-13T09:22:57;4.31;85.14
68026;SHT31;54819;48.030;14.710;2023-02-13T09:25:26;4.43;84.69
68026;SHT31;54819;48.030;14.710;2023-02-13T09:27:55;4.52;84.56
68026;SHT31;54819;48.030;14.710;2023-02-13T09:30:26;4.62;83.66
68026;SHT31;54819;48.030;14.710;2023-02-13T09:32:56;4.72;83.35
68026;SHT31;54819;48.030;14.710;2023-02-13T09:35:24;4.79;82.82
68026;SHT31;54819;48.030;14.710;2023-02-13T09:37:51;4.90;82.69
68026;SHT31;54819;48.030;14.710;2023-02-13T09:40:23;4.97;81.94
68026;SHT31;54819;48.030;14.710;2023-02-13T09:43:41;5.07;81.63
68026;SHT31;54819;48.030;14.710;2023-02-13T09:49:11;5.33;81.54
68026;SHT31;54819;48.030;14.710;2023-02-13T09:51:46;5.39;80.33
68026;SHT31;54819;48.030;14.710;2023-02-13T09:54:22;5.51;80.68
68026;SHT31;54819;48.030;14.710;2023-02-13T09:57:02;5.62;80.71
68026;SHT31;54819;48.030;14.710;2023-02-13T09:59:41;5.76;81.18
68026;SHT31;54819;48.030;14.710;2023-02-13T10:11:30;5.97;80.08
68026;SHT31;54819;48.030;14.710;2023-02-13T10:14:10;5.99;79.47
68026;SHT31;54819;48.030;14.710;2023-02-13T10:16:44;6.06;80.40
68026;SHT31;54819;48.030;14.710;2023-02-13T10:19:33;6.11;80.29
68026;SHT31;54819;48.030;14.710;2023-02-13T10:22:16;6.17;80.16
68026;SHT31;54819;48.030;14.710;2023-02-13T10:25:05;6.23;80.14
68026;SHT31;54819;48.030;14.710;2023-02-13T10:27:58;6.34;80.18
68026;SHT31;54819;48.030;14.710;2023-02-13T10:30:41;6.32;78.54
68026;SHT31;54819;48.030;14.710;2023-02-13T10:33:30;6.39;79.26
68026;SHT31;54819;48.030;14.710;2023-02-13T10:36:26;6.42;79.12
68026;SHT31;54819;48.030;14.710;2023-02-13T10:39:00;6.44;79.04
68026;SHT31;54819;48.030;14.710;2023-02-13T10:44:31;6.43;77.59
68026;SHT31;54819;48.030;14.710;2023-02-13T10:47:32;6.49;78.18
68026;SHT31;54819;48.030;14.710;2023-02-13T11:01:52;6.70;77.87
68026;SHT31;54819;48.030;14.710;2023-02-13T11:04:46;6.71;77.24
68026;SHT31;54819;48.030;14.710;2023-02-13T11:07:17;6.82;77.56
68026;SHT31;54819;48.030;14.710;2023-02-13T11:09:49;6.89;77.01
68026;SHT31;54819;48.030;14.710;2023-02-13T11:14:58;6.96;76.49
68026;SHT31;54819;48.030;14.710;2023-02-13T11:17:30;7.02;76.45
68026;SHT31;54819;48.030;14.710;2023-02-13T11:20:48;7.00;75.68
68026;SHT31;54819;48.030;14.710;2023-02-13T11:28:46;7.28;75.31
68026;SHT31;54819;48.030;14.710;2023-02-13T11:31:23;7.38;75.60
68026;SHT31;54819;48.030;14.710;2023-02-13T11:33:58;7.43;75.85
68026;SHT31;54819;48.030;14.710;2023-02-13T11:36:53;7.59;75.97
68026;SHT31;54819;48.030;14.710;2023-02-13T11:39:40;7.75;76.07
68026;SHT31;54819;48.030;14.710;2023-02-13T11:42:15;7.57;74.05
68026;SHT31;54819;48.030;14.710;2023-02-13T11:44:52;7.53;75.37
68026;SHT31;54819;48.030;14.710;2023-02-13T11:47:50;7.48;75.47
68026;SHT31;54819;48.030;14.710;2023-02-13T11:50:25;7.52;75.34
68026;SHT31;54819;48.030;14.710;2023-02-13T11:53:01;7.48;75.30
68026;SHT31;54819;48.030;14.710;2023-02-13T11:55:44;7.40;75.44
68026;SHT31;54819;48.030;14.710;2023-02-13T11:58:28;7.31;75.99
68026;SHT31;54819;48.030;14.710;2023-02-13T12:01:22;7.26;76.48
68026;SHT31;54819;48.030;14.710;2023-02-13T12:04:01;7.13;77.02
68026;SHT31;54819;48.030;14.710;2023-02-13T12:07:02;7.09;76.90
68026;SHT31;54819;48.030;14.710;2023-02-13T12:09:43;6.96;76.92
68026;SHT31;54819;48.030;14.710;2023-02-13T12:12:29;6.92;76.84
68026;SHT31;54819;48.030;14.710;2023-02-13T12:15:17;6.85;76.75
68026;SHT31;54819;48.030;14.710;2023-02-13T12:18:34;6.86;76.89
68026;SHT31;54819;48.030;14.710;2023-02-13T12:21:04;6.84;76.87
68026;SHT31;54819;48.030;14.710;2023-02-13T12:29:51;6.86;77.21
68026;SHT31;54819;48.030;14.710;2023-02-13T12:32:22;6.91;77.52
68026;SHT31;54819;48.030;14.710;2023-02-13T12:37:46;7.09;77.04
68026;SHT31;54819;48.030;14.710;2023-02-13T12:40:55;7.22;76.75
68026;SHT31;54819;48.030;14.710;2023-02-13T12:47:04;7.38;76.23
68026;SHT31;54819;48.030;14.710;2023-02-13T12:53:28;7.33;76.39
68026;SHT31;54819;48.030;14.710;2023-02-13T12:58:44;7.40;76.21
68026;SHT31;54819;48.030;14.710;2023-02-13T13:18:04;7.18;76.48
68026;SHT31;54819;48.030;14.710;2023-02-13T13:20:55;7.16;76.52
68026;SHT31;54819;48.030;14.710;2023-02-13T13:23:51;7.18;76.69
68026;SHT31;54819;48.030;14.710;2023-02-13T13:29:11;7.26;76.89
68026;SHT31;54819;48.030;14.710;2023-02-13T13:31:52;7.28;76.60
68026;SHT31;54819;48.030;14.710;2023-02-13T13:34:26;7.28;76.36
68026;SHT31;54819;48.030;14.710;2023-02-13T13:37:04;7.36;76.01
68026;SHT31;54819;48.030;14.710;2023-02-13T13:39:48;7.39;75.48
68026;SHT31;54819;48.030;14.710;2023-02-13T13:48:15;7.40;75.69
68026;SHT31;54819;48.030;14.710;2023-02-13T13:51:04;7.33;75.38
68026;SHT31;54819;48.030;14.710;2023-02-13T13:53:35;7.31;75.19
68026;SHT31;54819;48.030;14.710;2023-02-13T13:56:25;7.30;75.43
68026;SHT31;54819;48.030;14.710;2023-02-13T13:59:16;7.19;75.54
68026;SHT31;54819;48.030;14.710;2023-02-13T14:07:37;7.10;75.09
68026;SHT31;54819;48.030;14.710;2023-02-13T14:31:50;6.87;75.16
68026;SHT31;54819;48.030;14.710;2023-02-13T14:34:27;6.84;75.18
68026;SHT31;54819;48.030;14.710;2023-02-13T14:37:14;6.84;75.62
68026;SHT31;54819;48.030;14.710;2023-02-13T14:42:43;6.88;75.65
68026;SHT31;54819;48.030;14.710;2023-02-13T14:45:42;6.87;75.45
68026;SHT31;54819;48.030;14.710;2023-02-13T14:48:35;6.86;75.40
68026;SHT31;54819;48.030;14.710;2023-02-13T14:54:57;6.75;75.22
68026;SHT31;54819;48.030;14.710;2023-02-13T14:57:22;6.65;75.11
68026;SHT31;54819;48.030;14.710;2023-02-13T15:00:03;6.62;75.28
68026;SHT31;54819;48.030;14.710;2023-02-13T15:02:46;6.55;75.36
68026;SHT31;54819;48.030;14.710;2023-02-13T15:05:21;6.52;75.57
68026;SHT31;54819;48.030;14.710;2023-02-13T15:08:07;6.52;75.66
68026;SHT31;54819;48.030;14.710;2023-02-13T15:10:47;6.51;76.08
68026;SHT31;54819;48.030;14.710;2023-02-13T15:13:19;6.44;75.86
68026;SHT31;54819;48.030;14.710;2023-02-13T15:15:53;6.44;76.11
68026;SHT31;54819;48.030;14.710;2023-02-13T15:18:51;6.41;75.99
68026;SHT31;54819;48.030;14.710;2023-02-13T15:21:21;6.38;75.98
68026;SHT31;54819;48.030;14.710;2023-02-13T15:23:51;6.33;75.90
68026;SHT31;54819;48.030;14.710;2023-02-13T15:26:23;6.25;75.92
68026;SHT31;54819;48.030;14.710;2023-02-13T15:29:01;6.19;75.91
68026;SHT31;54819;48.030;14.710;2023-02-13T15:31:53;6.10;76.01
68026;SHT31;54819;48.030;14.710;2023-02-13T15:34:25;6.03;76.15
68026;SHT31;54819;48.030;14.710;2023-02-13T15:36:55;5.97;76.14
68026;SHT31;54819;48.030;14.710;2023-02-13T15:39:27;5.94;76.47
68026;SHT31;54819;48.030;14.710;2023-02-13T15:41:58;5.90;76.82
68026;SHT31;54819;48.030;14.710;2023-02-13T15:44:29;5.86;77.11
68026;SHT31;54819;48.030;14.710;2023-02-13T15:47:08;5.81;77.39
68026;SHT31;54819;48.030;14.710;2023-02-13T15:49:44;5.78;77.40
68026;SHT31;54819;48.030;14.710;2023-02-13T15:52:18;5.72;77.36
68026;SHT31;54819;48.030;14.710;2023-02-13T15:54:57;5.66;77.28
68026;SHT31;54819;48.030;14.710;2023-02-13T15:57:25;5.55;77.41
68026;SHT31;54819;48.030;14.710;2023-02-13T15:59:54;5.47;77.86
68026;SHT31;54819;48.030;14.710;2023-02-13T16:02:37;5.41;77.73
68026;SHT31;54819;48.030;14.710;2023-02-13T16:05:12;5.31;78.12
68026;SHT31;54819;48.030;14.710;2023-02-13T16:07:53;5.21;78.65
68026;SHT31;54819;48.030;14.710;2023-02-13T16:10:29;5.11;78.91
68026;SHT31;54819;48.030;14.710;2023-02-13T16:13:03;5.05;78.83
68026;SHT31;54819;48.030;14.710;2023-02-13T16:15:33;4.97;79.37
68026;SHT31;54819;48.030;14.710;2023-02-13T16:18:03;4.88;79.81
68026;SHT31;54819;48.030;14.710;2023-02-13T16:20:35;4.82;79.49
68026;SHT31;54819;48.030;14.710;2023-02-13T16:23:05;4.78;79.30
68026;SHT31;54819;48.030;14.710;2023-02-13T16:25:43;4.72;79.17
68026;SHT31;54819;48.030;14.710;2023-02-13T16:28:17;4.64;79.02
68026;SHT31;54819;48.030;14.710;2023-02-13T16:30:54;4.53;78.87
68026;SHT31;54819;48.030;14.710;2023-02-13T16:33:31;4.42;78.81
68026;SHT31;54819;48.030;14.710;2023-02-13T16:38:35;4.17;78.89
68026;SHT31;54819;48.030;14.710;2023-02-13T16:41:27;4.06;78.97
68026;SHT31;54819;48.030;14.710;2023-02-13T16:44:02;3.92;79.05
68026;SHT31;54819;48.030;14.710;2023-02-13T16:59:31;3.58;80.28
68026;SHT31;54819;48.030;14.710;2023-02-13T17:07:38;3.36;80.02
68026;SHT31;54819;48.030;14.710;2023-02-13T17:10:28;3.26;79.93
68026;SHT31;54819;48.030;14.710;2023-02-13T17:15:42;2.98;81.55
68026;SHT31;54819;48.030;14.710;2023-02-13T17:18:13;2.89;81.52
68026;SHT31;54819;48.030;14.710;2023-02-13T17:20:41;2.84;81.20
68026;SHT31;54819;48.030;14.710;2023-02-13T17:23:21;2.80;81.09
68026;SHT31;54819;48.030;14.710;2023-02-13T17:25:52;2.76;81.08
68026;SHT31;54819;48.030;14.710;2023-02-13T17:28:24;2.72;80.99
68026;SHT31;54819;48.030;14.710;2023-02-13T17:30:55;2.65;81.25
68026;SHT31;54819;48.030;14.710;2023-02-13T17:33:26;2.57;81.43
68026;SHT31;54819;48.030;14.710;2023-02-13T17:35:57;2.50;81.32
68026;SHT31;54819;48.030;14.710;2023-02-13T17:38:25;2.44;81.25
68026;SHT31;54819;48.030;14.710;2023-02-13T17:40:52;2.36;81.29
68026;SHT31;54819;48.030;14.710;2023-02-13T17:43:20;2.29;81.36
68026;SHT31;54819;48.030;14.710;2023-02-13T17:45:48;2.22;81.44
68026;SHT31;54819;48.030;14.710;2023-02-13T17:48:15;2.16;81.44
68026;SHT31;54819;48.030;14.710;2023-02-13T17:50:43;2.11;81.42
68026;SHT31;54819;48.030;14.710;2023-02-13T17:53:19;2.07;81.48
68026;SHT31;54819;48.030;14.710;2023-02-13T17:55:51;2.04;81.48
68026;SHT31;54819;48.030;14.710;2023-02-13T17:58:18;2.00;81.46
68026;SHT31;54819;48.030;14.710;2023-02-13T18:00:46;1.99;81.55
68026;SHT31;54819;48.030;14.710;2023-02-13T18:03:13;1.99;81.76
68026;SHT31;54819;48.030;14.710;2023-02-13T18:05:41;1.96;81.82
68026;SHT31;54819;48.030;14.710;2023-02-13T18:08:08;1.94;81.91
68026;SHT31;54819;48.030;14.710;2023-02-13T18:10:36;1.93;82.01
68026;SHT31;54819;48.030;14.710;2023-02-13T18:13:05;1.92;82.05
68026;SHT31;54819;48.030;14.710;2023-02-13T18:15:40;1.89;82.02
68026;SHT31;54819;48.030;14.710;2023-02-13T18:18:10;1.86;82.00
68026;SHT31;54819;48.030;14.710;2023-02-13T18:20:41;1.81;81.91
68026;SHT31;54819;48.030;14.710;2023-02-13T18:23:09;1.75;81.83
68026;SHT31;54819;48.030;14.710;2023-02-13T18:25:37;1.65;81.95
68026;SHT31;54819;48.030;14.710;2023-02-13T18:28:04;1.59;81.93
68026;SHT31;54819;48.030;14.710;2023-02-13T18:30:31;1.54;81.90
68026;SHT31;54819;48.030;14.710;2023-02-13T18:32:58;1.49;82.07
68026;SHT31;54819;48.030;14.710;2023-02-13T18:35:25;1.44;82.19
68026;SHT31;54819;48.030;14.710;2023-02-13T18:37:52;1.40;82.16
68026;SHT31;54819;48.030;14.710;2023-02-13T18:40:19;1.35;82.23
68026;SHT31;54819;48.030;14.710;2023-02-13T18:42:47;1.32;82.42
68026;SHT31;54819;48.030;14.710;2023-02-13T18:45:16;1.29;82.52
68026;SHT31;54819;48.030;14.710;2023-02-13T18:47:44;1.27;82.47
68026;SHT31;54819;48.030;14.710;2023-02-13T18:50:11;1.24;82.58
68026;SHT31;54819;48.030;14.710;2023-02-13T18:52:39;1.21;82.57
68026;SHT31;54819;48.030;14.710;2023-02-13T18:55:06;1.21;82.83
68026;SHT31;54819;48.030;14.710;2023-02-13T18:57:34;1.20;83.51
68026;SHT31;54819;48.030;14.710;2023-02-13T19:00:05;1.17;83.75
68026;SHT31;54819;48.030;14.710;2023-02-13T19:02:33;1.14;83.78